Viimsi — ES2084 — position and weather

sailwx.info

Track history (hours):
 
Tides and Currents Weather Stations Pressure Air Temp Water Temp Dewpoint Dewpoint Depression Visibility Wind Speed Wind Dir Waves Ship Positions

Viimsi

Last reported at 2015-Sep-04 19:33 UTC. Time now 2015-Sep-05 07:51 UTC.
Position N 59°28' E 024°43'.

Length 78 m; draft 3.6 m.

Type: Ship. MMSI: 276297000.

Date/timePositionNaut miles runAvg speedWind from/ knotsBaromVisibWave heightAir tempDewpointWater temp
2015-Sep-04 19:33N 59°28' E 024°43'0 0.0
2015-Sep-04 18:33N 59°28' E 024°43'0 0.0
2015-Sep-04 17:33N 59°28' E 024°43'0 0.0
2015-Sep-04 16:33N 59°28' E 024°43'0 0.0
2015-Sep-04 15:33N 59°28' E 024°43'0 0.0
2015-Sep-04 14:33N 59°28' E 024°43'0 0.0
2015-Sep-04 13:34N 59°28' E 024°43'0 0.0
2015-Sep-04 12:34N 59°28' E 024°43'0 0.0
2015-Sep-04 11:34N 59°28' E 024°43'0 0.2
2015-Sep-04 10:34N 59°28' E 024°43'2 1.9
2015-Sep-04 09:33N 59°27' E 024°46'0 0.0
2015-Sep-04 08:34N 59°27' E 024°46'0 0.0
2015-Sep-04 07:33N 59°27' E 024°46'2 1.7
2015-Sep-04 06:33N 59°28' E 024°44'0 0.5
2015-Sep-04 05:32N 59°28' E 024°43'0 0.0
2015-Sep-04 04:32N 59°28' E 024°43'0 0.0
2015-Sep-04 03:32N 59°28' E 024°43'0 0.0
2015-Sep-04 02:32N 59°28' E 024°43'0 0.0
2015-Sep-04 01:32N 59°28' E 024°43'0 0.0
2015-Sep-04 00:32N 59°28' E 024°43'0 0.0
2015-Sep-03 23:32N 59°28' E 024°43'0 0.0
2015-Sep-03 22:32N 59°28' E 024°43'0 0.0
2015-Sep-03 21:32N 59°28' E 024°43'0 0.0
2015-Sep-03 20:32N 59°28' E 024°43'0 0.0
2015-Sep-03 19:32N 59°28' E 024°43'0 0.0
2015-Sep-03 18:29N 59°28' E 024°43'0 0.0
2015-Sep-03 17:29N 59°28' E 024°43'0 0.0
2015-Sep-03 16:32N 59°28' E 024°43'0 0.0
2015-Sep-03 15:32N 59°28' E 024°43'0 0.0
2015-Sep-03 14:29N 59°28' E 024°43'0 0.0
2015-Sep-03 13:32N 59°28' E 024°43'0 0.0
2015-Sep-03 12:32N 59°28' E 024°43'0 0.0
2015-Sep-03 11:24N 59°28' E 024°43'3 3.1
2015-Sep-03 10:33N 59°30' E 024°41'2 1.2
2015-Sep-03 08:31N 59°28' E 024°39'0 0.0
2015-Sep-03 05:32N 59°28' E 024°39'0 0.0
2015-Sep-03 04:33N 59°28' E 024°39'0 0.0
2015-Sep-03 03:32N 59°28' E 024°39'0 0.0
2015-Sep-03 02:29N 59°28' E 024°39'1 0.6
2015-Sep-03 01:33N 59°28' E 024°38'8 8.1
2015-Sep-03 00:33N 59°36' E 024°40'5 4.6
2015-Sep-02 23:32N 59°35' E 024°50'0 0.0
2015-Sep-02 22:32N 59°35' E 024°50'0 0.0
2015-Sep-02 21:29N 59°35' E 024°50'0 0.0
2015-Sep-02 20:34N 59°35' E 024°50'5 4.5
2015-Sep-02 19:34N 59°37' E 024°41'9 9.0
2015-Sep-02 18:33N 59°28' E 024°44'1 0.7
2015-Sep-02 17:34N 59°28' E 024°42'0 0.0
2015-Sep-02 16:33N 59°28' E 024°42'0 0.0
2015-Sep-02 15:33N 59°28' E 024°42'0 0.0
2015-Sep-02 14:33N 59°28' E 024°42'0 0.0
2015-Sep-02 13:33N 59°28' E 024°42'0 0.0
2015-Sep-02 12:33N 59°28' E 024°42'0 0.0
2015-Sep-02 11:33N 59°28' E 024°42'0 0.0
2015-Sep-02 10:33N 59°28' E 024°42'0 0.0
2015-Sep-02 09:34N 59°28' E 024°42'0 0.0
2015-Sep-02 08:33N 59°28' E 024°42'0 0.0
2015-Sep-02 07:33N 59°28' E 024°42'2 2.0
2015-Sep-02 06:33N 59°30' E 024°43'3 2.9
2015-Sep-02 05:33N 59°28' E 024°39'0 0.0
2015-Sep-02 04:25N 59°28' E 024°39'0 0.0
2015-Sep-02 03:32N 59°28' E 024°39'0 0.0
2015-Sep-02 02:33N 59°28' E 024°39'0 0.0
2015-Sep-02 01:33N 59°28' E 024°39'0 0.0
2015-Sep-02 00:33N 59°28' E 024°39'0 0.0
2015-Sep-01 23:33N 59°28' E 024°39'0 0.0
2015-Sep-01 22:32N 59°28' E 024°39'0 0.0
2015-Sep-01 21:33N 59°28' E 024°39'0 0.0
2015-Sep-01 20:33N 59°28' E 024°39'0 0.0
2015-Sep-01 19:33N 59°28' E 024°39'0 0.0
2015-Sep-01 18:33N 59°28' E 024°39'4 3.8
2015-Sep-01 17:33N 59°29' E 024°32'0 0.0
2015-Sep-01 16:33N 59°29' E 024°32'0 0.0
2015-Sep-01 15:33N 59°29' E 024°32'0 0.0
2015-Sep-01 14:33N 59°29' E 024°32'0 0.0
2015-Sep-01 13:32N 59°29' E 024°32'0 0.0
2015-Sep-01 12:34N 59°29' E 024°32'1 1.0
2015-Sep-01 11:23N 59°29' E 024°35'3 2.9
2015-Sep-01 10:31N 59°28' E 024°39'0 0.0
2015-Sep-01 08:33N 59°28' E 024°39'0 0.0
2015-Sep-01 05:26N 59°28' E 024°39'0 0.0
2015-Sep-01 01:13N 59°28' E 024°39'3 4.3
2015-Sep-01 00:33N 59°29' E 024°34'20 9.9
2015-Aug-31 22:33N 59°23' E 023°56'3 0.4
2015-Aug-31 16:33N 59°24' E 024°00'1110.1
2015-Aug-31 15:30N 59°30' E 024°18'11 9.8
2015-Aug-31 14:23N 59°30' E 024°40'3 3.2
2015-Aug-31 13:31N 59°28' E 024°43'0 0.0
2015-Aug-31 12:31N 59°28' E 024°43'2 1.8
2015-Aug-31 11:33N 59°27' E 024°46'1 0.2
2015-Aug-31 09:09N 59°27' E 024°46'0 0.0
2015-Aug-31 07:03N 59°27' E 024°46'1 1.8
2015-Aug-31 06:33N 59°27' E 024°45'1 0.5
2015-Aug-31 03:31N 59°28' E 024°42'0 0.0
2015-Aug-31 02:31N 59°28' E 024°42'0 0.0
2015-Aug-31 01:31N 59°28' E 024°42'0 0.0
2015-Aug-31 00:31N 59°28' E 024°42'0 0.0
2015-Aug-30 23:31N 59°28' E 024°42'0 0.0
2015-Aug-30 22:28N 59°28' E 024°42'0 0.0
2015-Aug-30 21:31N 59°28' E 024°42'0 0.0
2015-Aug-30 20:31N 59°28' E 024°42'0 0.0
2015-Aug-30 19:28N 59°28' E 024°42'0 0.0
2015-Aug-30 18:28N 59°28' E 024°42'3 2.9
2015-Aug-30 17:33N 59°30' E 024°40'2 0.5
2015-Aug-30 13:24N 59°28' E 024°39'3 3.5
2015-Aug-30 12:33N 59°30' E 024°43'4 3.5
2015-Aug-30 11:32N 59°27' E 024°47'0 0.0
2015-Aug-30 10:32N 59°27' E 024°47'0 0.0
2015-Aug-30 09:32N 59°27' E 024°47'0 0.0
2015-Aug-30 08:32N 59°27' E 024°47'0 0.0
2015-Aug-30 07:32N 59°27' E 024°47'1 0.7
2015-Aug-30 06:33N 59°27' E 024°46'2 1.6
2015-Aug-30 05:31N 59°28' E 024°42'0 0.0
2015-Aug-30 04:31N 59°28' E 024°42'0 0.0
2015-Aug-30 03:31N 59°28' E 024°42'0 0.0
2015-Aug-30 02:31N 59°28' E 024°42'0 0.0
2015-Aug-30 01:31N 59°28' E 024°42'0 0.0
2015-Aug-30 00:31N 59°28' E 024°42'0 0.0
2015-Aug-29 23:31N 59°28' E 024°42'0 0.0
2015-Aug-29 22:31N 59°28' E 024°42'0 0.0
2015-Aug-29 21:31N 59°28' E 024°42'0 0.0
2015-Aug-29 20:31N 59°28' E 024°42'0 0.0
2015-Aug-29 19:28N 59°28' E 024°42'0 0.0
2015-Aug-29 18:25N 59°28' E 024°42'0 0.0
2015-Aug-29 17:31N 59°28' E 024°42'0 0.0
2015-Aug-29 15:25N 59°28' E 024°42'0 0.0
2015-Aug-28 12:32N 59°28' E 024°42'0 0.0
2015-Aug-28 11:33N 59°28' E 024°42'0 0.0
2015-Aug-28 10:33N 59°28' E 024°42'0 0.0
2015-Aug-28 09:33N 59°28' E 024°42'0 0.0
2015-Aug-28 06:18N 59°28' E 024°42'0 0.0
2015-Aug-28 05:33N 59°28' E 024°42'  
Track history (hours):
 
Tides and Currents Weather Stations Pressure Air Temp Water Temp Dewpoint Dewpoint Depression Visibility Wind Speed Wind Dir Waves Ship Positions

Viimsi

Last reported at 2015-Sep-04 19:33 UTC. Time now 2015-Sep-05 07:51 UTC.
Position N 59°28' E 024°43'.

Length 78 m; draft 3.6 m.

Type: Ship. MMSI: 276297000.

Date/timePositionNaut miles runAvg speedWind from/ knotsBaromVisibWave heightAir tempDewpointWater temp
2015-Sep-04 19:33N 59°28' E 024°43'0 0.0
2015-Sep-04 18:33N 59°28' E 024°43'0 0.0
2015-Sep-04 17:33N 59°28' E 024°43'0 0.0
2015-Sep-04 16:33N 59°28' E 024°43'0 0.0
2015-Sep-04 15:33N 59°28' E 024°43'0 0.0
2015-Sep-04 14:33N 59°28' E 024°43'0 0.0
2015-Sep-04 13:34N 59°28' E 024°43'0 0.0
2015-Sep-04 12:34N 59°28' E 024°43'0 0.0
2015-Sep-04 11:34N 59°28' E 024°43'0 0.2
2015-Sep-04 10:34N 59°28' E 024°43'2 1.9
2015-Sep-04 09:33N 59°27' E 024°46'0 0.0
2015-Sep-04 08:34N 59°27' E 024°46'0 0.0
2015-Sep-04 07:33N 59°27' E 024°46'2 1.7
2015-Sep-04 06:33N 59°28' E 024°44'0 0.5
2015-Sep-04 05:32N 59°28' E 024°43'0 0.0
2015-Sep-04 04:32N 59°28' E 024°43'0 0.0
2015-Sep-04 03:32N 59°28' E 024°43'0 0.0
2015-Sep-04 02:32N 59°28' E 024°43'0 0.0
2015-Sep-04 01:32N 59°28' E 024°43'0 0.0
2015-Sep-04 00:32N 59°28' E 024°43'0 0.0
2015-Sep-03 23:32N 59°28' E 024°43'0 0.0
2015-Sep-03 22:32N 59°28' E 024°43'0 0.0
2015-Sep-03 21:32N 59°28' E 024°43'0 0.0
2015-Sep-03 20:32N 59°28' E 024°43'0 0.0
2015-Sep-03 19:32N 59°28' E 024°43'0 0.0
2015-Sep-03 18:29N 59°28' E 024°43'0 0.0
2015-Sep-03 17:29N 59°28' E 024°43'0 0.0
2015-Sep-03 16:32N 59°28' E 024°43'0 0.0
2015-Sep-03 15:32N 59°28' E 024°43'0 0.0
2015-Sep-03 14:29N 59°28' E 024°43'0 0.0
2015-Sep-03 13:32N 59°28' E 024°43'0 0.0
2015-Sep-03 12:32N 59°28' E 024°43'0 0.0
2015-Sep-03 11:24N 59°28' E 024°43'3 3.1
2015-Sep-03 10:33N 59°30' E 024°41'2 1.2
2015-Sep-03 08:31N 59°28' E 024°39'0 0.0
2015-Sep-03 05:32N 59°28' E 024°39'0 0.0
2015-Sep-03 04:33N 59°28' E 024°39'0 0.0
2015-Sep-03 03:32N 59°28' E 024°39'0 0.0
2015-Sep-03 02:29N 59°28' E 024°39'1 0.6
2015-Sep-03 01:33N 59°28' E 024°38'8 8.1
2015-Sep-03 00:33N 59°36' E 024°40'5 4.6
2015-Sep-02 23:32N 59°35' E 024°50'0 0.0
2015-Sep-02 22:32N 59°35' E 024°50'0 0.0
2015-Sep-02 21:29N 59°35' E 024°50'0 0.0
2015-Sep-02 20:34N 59°35' E 024°50'5 4.5
2015-Sep-02 19:34N 59°37' E 024°41'9 9.0
2015-Sep-02 18:33N 59°28' E 024°44'1 0.7
2015-Sep-02 17:34N 59°28' E 024°42'0 0.0
2015-Sep-02 16:33N 59°28' E 024°42'0 0.0
2015-Sep-02 15:33N 59°28' E 024°42'0 0.0
2015-Sep-02 14:33N 59°28' E 024°42'0 0.0
2015-Sep-02 13:33N 59°28' E 024°42'0 0.0
2015-Sep-02 12:33N 59°28' E 024°42'0 0.0
2015-Sep-02 11:33N 59°28' E 024°42'0 0.0
2015-Sep-02 10:33N 59°28' E 024°42'0 0.0
2015-Sep-02 09:34N 59°28' E 024°42'0 0.0
2015-Sep-02 08:33N 59°28' E 024°42'0 0.0
2015-Sep-02 07:33N 59°28' E 024°42'2 2.0
2015-Sep-02 06:33N 59°30' E 024°43'3 2.9
2015-Sep-02 05:33N 59°28' E 024°39'0 0.0
2015-Sep-02 04:25N 59°28' E 024°39'0 0.0
2015-Sep-02 03:32N 59°28' E 024°39'0 0.0
2015-Sep-02 02:33N 59°28' E 024°39'0 0.0
2015-Sep-02 01:33N 59°28' E 024°39'0 0.0
2015-Sep-02 00:33N 59°28' E 024°39'0 0.0
2015-Sep-01 23:33N 59°28' E 024°39'0 0.0
2015-Sep-01 22:32N 59°28' E 024°39'0 0.0
2015-Sep-01 21:33N 59°28' E 024°39'0 0.0
2015-Sep-01 20:33N 59°28' E 024°39'0 0.0
2015-Sep-01 19:33N 59°28' E 024°39'0 0.0
2015-Sep-01 18:33N 59°28' E 024°39'4 3.8
2015-Sep-01 17:33N 59°29' E 024°32'0 0.0
2015-Sep-01 16:33N 59°29' E 024°32'0 0.0
2015-Sep-01 15:33N 59°29' E 024°32'0 0.0
2015-Sep-01 14:33N 59°29' E 024°32'0 0.0
2015-Sep-01 13:32N 59°29' E 024°32'0 0.0
2015-Sep-01 12:34N 59°29' E 024°32'1 1.0
2015-Sep-01 11:23N 59°29' E 024°35'3 2.9
2015-Sep-01 10:31N 59°28' E 024°39'0 0.0
2015-Sep-01 08:33N 59°28' E 024°39'0 0.0
2015-Sep-01 05:26N 59°28' E 024°39'0 0.0
2015-Sep-01 01:13N 59°28' E 024°39'3 4.3
2015-Sep-01 00:33N 59°29' E 024°34'20 9.9
2015-Aug-31 22:33N 59°23' E 023°56'3 0.4
2015-Aug-31 16:33N 59°24' E 024°00'1110.1
2015-Aug-31 15:30N 59°30' E 024°18'11 9.8
2015-Aug-31 14:23N 59°30' E 024°40'3 3.2
2015-Aug-31 13:31N 59°28' E 024°43'0 0.0
2015-Aug-31 12:31N 59°28' E 024°43'2 1.8
2015-Aug-31 11:33N 59°27' E 024°46'1 0.2
2015-Aug-31 09:09N 59°27' E 024°46'0 0.0
2015-Aug-31 07:03N 59°27' E 024°46'1 1.8
2015-Aug-31 06:33N 59°27' E 024°45'1 0.5
2015-Aug-31 03:31N 59°28' E 024°42'0 0.0
2015-Aug-31 02:31N 59°28' E 024°42'0 0.0
2015-Aug-31 01:31N 59°28' E 024°42'0 0.0
2015-Aug-31 00:31N 59°28' E 024°42'0 0.0
2015-Aug-30 23:31N 59°28' E 024°42'0 0.0
2015-Aug-30 22:28N 59°28' E 024°42'0 0.0
2015-Aug-30 21:31N 59°28' E 024°42'0 0.0
2015-Aug-30 20:31N 59°28' E 024°42'0 0.0
2015-Aug-30 19:28N 59°28' E 024°42'0 0.0
2015-Aug-30 18:28N 59°28' E 024°42'3 2.9
2015-Aug-30 17:33N 59°30' E 024°40'2 0.5
2015-Aug-30 13:24N 59°28' E 024°39'3 3.5
2015-Aug-30 12:33N 59°30' E 024°43'4 3.5
2015-Aug-30 11:32N 59°27' E 024°47'0 0.0
2015-Aug-30 10:32N 59°27' E 024°47'0 0.0
2015-Aug-30 09:32N 59°27' E 024°47'0 0.0
2015-Aug-30 08:32N 59°27' E 024°47'0 0.0
2015-Aug-30 07:32N 59°27' E 024°47'1 0.7
2015-Aug-30 06:33N 59°27' E 024°46'2 1.6
2015-Aug-30 05:31N 59°28' E 024°42'0 0.0
2015-Aug-30 04:31N 59°28' E 024°42'0 0.0
2015-Aug-30 03:31N 59°28' E 024°42'0 0.0
2015-Aug-30 02:31N 59°28' E 024°42'0 0.0
2015-Aug-30 01:31N 59°28' E 024°42'0 0.0
2015-Aug-30 00:31N 59°28' E 024°42'0 0.0
2015-Aug-29 23:31N 59°28' E 024°42'0 0.0
2015-Aug-29 22:31N 59°28' E 024°42'0 0.0
2015-Aug-29 21:31N 59°28' E 024°42'0 0.0
2015-Aug-29 20:31N 59°28' E 024°42'0 0.0
2015-Aug-29 19:28N 59°28' E 024°42'0 0.0
2015-Aug-29 18:25N 59°28' E 024°42'0 0.0
2015-Aug-29 17:31N 59°28' E 024°42'0 0.0
2015-Aug-29 15:25N 59°28' E 024°42'0 0.0
2015-Aug-28 12:32N 59°28' E 024°42'0 0.0
2015-Aug-28 11:33N 59°28' E 024°42'0 0.0
2015-Aug-28 10:33N 59°28' E 024°42'0 0.0
2015-Aug-28 09:33N 59°28' E 024°42'0 0.0
2015-Aug-28 06:18N 59°28' E 024°42'0 0.0
2015-Aug-28 05:33N 59°28' E 024°42'  

Dump ship's entire track history